Smithville, AR (72466)

12:15 PM CDT on July 21, 2017 (GMT -0500)
pierce creek | | Change Station
Active Advisory: Heat Advisory

Elev 240 ft 36.29 °N, 91.44 °W | Updated 15 seconds ago

Clear
Clear
102.2 °F
Feels Like 120 °F
N
4.7
Wind Variable Wind from West

Today
High -- | Low -- °F
--% Chance of Precip.
Yesterday
High -- | Low -- °F
Precip. -- in
Pressure 30.01 in
Visibility 9.0 miles
Clouds Clear
Heat Index 120 °F
Dew Point 78 °F
Humidity 46%
Rainfall 0.00 in
Snow Depth Not available.
6:04 AM 8:18 PM
Waning Crescent, 4% visible
METAR KARG 211655Z AUTO 22006KT 9SM CLR 34/24 A3001 RMK AO1
Pressure 30.01 in
Visibility 9.0 miles
Clouds Clear
Heat Index 120 °F
Dew Point 78 °F
Humidity 46%
Rainfall 0.00 in
Snow Depth Not available.
6:04 AM 8:18 PM
Waning Crescent, 4% visible
METAR KARG 211655Z AUTO 22006KT 9SM CLR 34/24 A3001 RMK AO1

Get Your Daily Forecast Email!

Thanks for signing up!

Be on the lookout for a verification email in your inbox.

You'll start receiving severe weather alerts in your inbox..

×

10-Day Weather Forecast

Almanac

Astronomy

Jul. 21, 2017 Rise Set
Actual Time
Civil Twilight
Nautical Twilight
Astronomical Twilight
Moon
Length of Visible Light
Length of Day
Tomorrow will be .
, % of the Moon is Illuminated

Today's Extremes

State Highs State Lows

Community

WunderPhotos

Category 6

Welcome to Category 6. This is the collective home for Weather Underground's featured writeups by Dr. Jeff Masters (right), Bob Henson (left), Chris Burt, and other regular contributors.

Nearby

Air Quality

  Air Quality AQ Index Pollutant
Not available.

Snow Depth

Station Depth Elevation

Earthquake Activity

City Distance Mag. Time & Date
Minimum magnitude displayed is 2.5.

Coastal Water Temperatures

Place Temperature

Stations

Nearby Weather Stations

Station Location Temp. Windchill Dew Point Humidity Wind Precip. Elev Updated Type
                   

Watches & Warnings

Heat Advisory
Issued: 11:30 AM CDT Jul. 21, 2017 – National Weather Service

... Heat advisory now in effect until 8 PM CDT Saturday...

* heat index values... 105 to 109 degrees.

* Timing... today through early Saturday evening.

* Impacts... heat stroke and dehydration will be possible for
people outdoors.

Precautionary/preparedness actions...

Take extra precautions... if you work or spend time outside. When
possible... reschedule strenuous activities to early morning or
evening. Know the signs and symptoms of heat exhaustion and heat
stroke. Wear light weight and loose fitting clothing when
possible and drink plenty of water. Anyone overcome by heat
should be moved to a cool and shaded location. Heat stroke is an
emergency... call 9 1 1.

A heat advisory means that a period of hot temperatures is
expected. The combination of hot temperatures and high humidity
will combine to create a situation in which heat illnesses are
possible. Drink plenty of fluids... stay in an air-conditioned
room... stay out of the sun... and check up on relatives and
neighbors.